WetterOnline ( http://www.wetteronline.de )

Wetter aktuell Ruhpolding

Aktuelles Wetter: Salzburg Flughafen (450m)

6-stündlich | Neueste Meldungen
Ortszeit Temperatur Wetter
Mi, 17.01. 7:00 3.6° C leichte Schauer
Mi, 17.01. 1:00 1.2° C leichter Regen
Di, 16.01. 19:00 3.6° C leichte Schauer
Di, 16.01. 13:00 9.2° C leichte Schauer
Di, 16.01. 7:00 3.5° C bewölkt
Di, 16.01. 1:00 2.8° C bewölkt
Mo, 15.01. 19:00 0.6° C wolkig
Mo, 15.01. 13:00 2.3° C bewölkt
Ortszeit Temperatur Wetter
Mi, 17.01. 7:20 3° C leichter Regen
Mi, 17.01. 7:00 3.6° C leichte Schauer
Mi, 17.01. 6:50 4° C leichte Schauer
Mi, 17.01. 6:20 3° C leichte Schauer
Mi, 17.01. 6:00 3.0° C bedeckt
Mi, 17.01. 5:50 3° C bewölkt
Mi, 17.01. 5:20 3° C leichte Schauer
Mi, 17.01. 5:00 3.3° C leichte Schauer
Mi, 17.01. 4:20 3° C leichter Regen
Mi, 17.01. 4:00 1.7° C leichter Regen
Ortszeit Relative Feuchte Sichtweite
Mi, 17.01. 7:00 82% 7 km
Mi, 17.01. 1:00 96% 21 km
Di, 16.01. 19:00 91% 30 km
Di, 16.01. 13:00 57% 40 km
Di, 16.01. 7:00 71% 50 km
Di, 16.01. 1:00 60% 30 km
Mo, 15.01. 19:00 86% 14 km
Mo, 15.01. 13:00 76% 22 km
Ortszeit Relative Feuchte Sichtweite
Mi, 17.01. 7:20 87% >10 km
Mi, 17.01. 7:00 82% 7 km
Mi, 17.01. 6:50 81% 9 km
Mi, 17.01. 6:20 87% >10 km
Mi, 17.01. 6:00 87% 45 km
Mi, 17.01. 5:50 87% >10 km
Mi, 17.01. 5:20 87% >10 km
Mi, 17.01. 5:00 82% 45 km
Mi, 17.01. 4:20 87% >10 km
Mi, 17.01. 4:00 95% 8 km
Ortszeit Niederschlagsmenge Niederschlagsart
Mi, 17.01. 7:00 11 l/m2 in 12 Std. -
Mi, 17.01. 1:00 7 l/m2 in 6 Std. -
Di, 16.01. 19:00 9 l/m2 in 12 Std. -
Di, 16.01. 13:00 0.1 l/m2 in 6 Std. -
Di, 16.01. 7:00 0.5 l/m2 in 12 Std. -
Di, 16.01. 1:00 0.1 l/m2 in 6 Std. -
Mo, 15.01. 19:00 0.1 l/m2 in 12 Std. -
Mo, 15.01. 13:00 0.1 l/m2 in 6 Std. -
Ortszeit Niederschlagsmenge Niederschlagsart
Mi, 17.01. 7:20 keine Meldung -
Mi, 17.01. 7:00 0.4 l/m2 in 1 Std. -
Mi, 17.01. 6:50 keine Meldung -
Mi, 17.01. 6:20 keine Meldung -
Mi, 17.01. 6:00 0.1 l/m2 in 1 Std. -
Mi, 17.01. 5:50 keine Meldung -
Mi, 17.01. 5:20 keine Meldung -
Mi, 17.01. 5:00 0.4 l/m2 in 1 Std. -
Mi, 17.01. 4:20 keine Meldung -
Mi, 17.01. 4:00 1.0 l/m2 in 1 Std. -
Ortszeit Stärke Spitze Richtung
km/h Bft. km/h Grad Sektor
Mi, 17.01. 7:00 29 5 50 260° W
Mi, 17.01. 1:00 14 3 47 40° NO
Di, 16.01. 19:00 7 2 58 - -
Di, 16.01. 13:00 32 5 58 260° W
Di, 16.01. 7:00 18 3 - 170° S
Di, 16.01. 1:00 14 3 - 130° SO
Mo, 15.01. 19:00 11 2 - 160° S
Mo, 15.01. 13:00 11 2 - - -
Ortszeit Stärke Spitze Richtung
km/h Bft. km/h Grad Sektor
Mi, 17.01. 7:20 20 4 44 240° SW
Mi, 17.01. 7:00 29 5 50 260° W
Mi, 17.01. 6:50 30 5 48 260° W
Mi, 17.01. 6:20 11 2 41 270° W
Mi, 17.01. 6:00 11 2 - - -
Mi, 17.01. 5:50 9 2 - 80° O
Mi, 17.01. 5:20 11 2 - 220° SW
Mi, 17.01. 5:00 7 2 - - -
Mi, 17.01. 4:20 15 3 - 190° S
Mi, 17.01. 4:00 18 3 - 180° S
Ortszeit Untergrenze Bedeckung Gattung
total tief tief mittel hoch
Mi, 17.01. 7:00 300 m 8/8 5/8 Cu - -
Mi, 17.01. 1:00 120 m 8/8 5/8 - - -
Di, 16.01. 19:00 750 m 8/8 7/8 Sc - -
Di, 16.01. 13:00 750 m 7/8 6/8 Cu - -
Di, 16.01. 7:00 1350 m 7/8 6/8 Cu - -
Di, 16.01. 1:00 2400 m 8/8 5/8 - - -
Mo, 15.01. 19:00 5400 m 6/8 6/8 - Ac -
Mo, 15.01. 13:00 450 m 7/8 6/8 Sc Ac -
Ortszeit Bedeckungsgrad in Achtel und Wolkenuntergrenze
Mi, 17.01. 7:20 1-2(360m) 3-4(600m) 5-7(1440m)
Mi, 17.01. 7:00 1(300m) 3(510m) 5(720m)
Mi, 17.01. 6:50 1-2(300m) 3-4(510m) 5-7(720m)
Mi, 17.01. 6:20 1-2(660m) 5-7(1020m)
Mi, 17.01. 6:00 1(420m) 3(1080m) 5(1500m)
Mi, 17.01. 5:50 1-2(420m) 3-4(1080m) 7(1500m)
Mi, 17.01. 5:20 1-2(570m) 5-7(900m)
Mi, 17.01. 5:00 1(510m) 5(900m)
Mi, 17.01. 4:20 1-2(300m) 3-4(480m) 5-7(720m)
Mi, 17.01. 4:00 1(270m) 3(420m) 5(600m)
Ortszeit Luftdruck NN (hPa) Tendenz (hPa in 3 Std.)
Mi, 17.01. 7:00 999 - 0,2
Mi, 17.01. 1:00 1002 + 0,5
Di, 16.01. 19:00 1003 + 2,8
Di, 16.01. 13:00 1001 + 0,1
Di, 16.01. 7:00 1004 - 1,7
Di, 16.01. 1:00 1008 - 1,5
Mo, 15.01. 19:00 1014 - 3,3
Mo, 15.01. 13:00 1020 - 2,2
Ortszeit Luftdruck NN (hPa) Tendenz (hPa in 3 Std.)
Mi, 17.01. 7:20 998 keine Meldung
Mi, 17.01. 7:00 999 - 0,2
Mi, 17.01. 6:50 997 keine Meldung
Mi, 17.01. 6:20 997 keine Meldung
Mi, 17.01. 6:00 999 - 1,1
Mi, 17.01. 5:50 997 keine Meldung
Mi, 17.01. 5:20 997 keine Meldung
Mi, 17.01. 5:00 999 - 1,3
Mi, 17.01. 4:20 998 keine Meldung
Mi, 17.01. 4:00 1000 - 1,7
Ortszeit Schneehöhe (cm)
Mi, 17.01. 7:00 -
Mi, 17.01. 1:00 -
Di, 16.01. 19:00 -
Di, 16.01. 13:00 -
Di, 16.01. 7:00 -
Di, 16.01. 1:00 -
Mo, 15.01. 19:00 -
Mo, 15.01. 13:00 -
Ortszeit Schneehöhe (cm)
Mi, 17.01. 7:20 -
Mi, 17.01. 7:00 -
Mi, 17.01. 6:50 -
Mi, 17.01. 6:20 -
Mi, 17.01. 6:00 -
Mi, 17.01. 5:50 -
Mi, 17.01. 5:20 -
Mi, 17.01. 5:00 -
Mi, 17.01. 4:20 -
Mi, 17.01. 4:00 -
Link zu dieser Seite / Seite empfehlen

Das Wetter in ...